sensor_id;sensor_type;location;lat;lon;timestamp;temperature;humidity
81266;DHT22;70748;52.510;13.410;2023-07-13T00:00:35;20.20;54.40
81266;DHT22;70748;52.510;13.410;2023-07-13T00:03:02;20.20;54.80
81266;DHT22;70748;52.510;13.410;2023-07-13T00:05:27;20.40;54.50
81266;DHT22;70748;52.510;13.410;2023-07-13T00:07:53;20.50;53.70
81266;DHT22;70748;52.510;13.410;2023-07-13T00:10:20;20.40;54.20
81266;DHT22;70748;52.510;13.410;2023-07-13T00:12:46;20.50;53.70
81266;DHT22;70748;52.510;13.410;2023-07-13T00:15:18;20.20;54.70
81266;DHT22;70748;52.510;13.410;2023-07-13T00:17:52;20.30;54.40
81266;DHT22;70748;52.510;13.410;2023-07-13T00:20:24;20.10;55.10
81266;DHT22;70748;52.510;13.410;2023-07-13T00:22:53;19.90;55.60
81266;DHT22;70748;52.510;13.410;2023-07-13T00:25:20;20.10;55.80
81266;DHT22;70748;52.510;13.410;2023-07-13T00:27:47;20.00;55.40
81266;DHT22;70748;52.510;13.410;2023-07-13T00:30:14;20.20;55.90
81266;DHT22;70748;52.510;13.410;2023-07-13T00:32:40;20.20;55.10
81266;DHT22;70748;52.510;13.410;2023-07-13T00:35:07;20.10;56.20
81266;DHT22;70748;52.510;13.410;2023-07-13T00:37:33;20.10;55.80
81266;DHT22;70748;52.510;13.410;2023-07-13T00:40:02;20.10;55.80
81266;DHT22;70748;52.510;13.410;2023-07-13T00:42:28;20.20;55.20
81266;DHT22;70748;52.510;13.410;2023-07-13T00:47:38;20.20;57.30
81266;DHT22;70748;52.510;13.410;2023-07-13T00:50:10;20.30;55.70
81266;DHT22;70748;52.510;13.410;2023-07-13T00:52:45;20.40;55.50
81266;DHT22;70748;52.510;13.410;2023-07-13T00:55:12;20.30;55.30
81266;DHT22;70748;52.510;13.410;2023-07-13T00:57:38;20.20;55.30
81266;DHT22;70748;52.510;13.410;2023-07-13T01:00:06;20.10;55.60
81266;DHT22;70748;52.510;13.410;2023-07-13T01:02:36;20.00;56.20
81266;DHT22;70748;52.510;13.410;2023-07-13T01:05:19;19.80;56.30
81266;DHT22;70748;52.510;13.410;2023-07-13T01:07:45;19.70;56.80
81266;DHT22;70748;52.510;13.410;2023-07-13T01:10:13;19.70;57.40
81266;DHT22;70748;52.510;13.410;2023-07-13T01:12:39;19.70;57.60
81266;DHT22;70748;52.510;13.410;2023-07-13T01:15:05;19.70;57.80
81266;DHT22;70748;52.510;13.410;2023-07-13T01:17:51;19.50;57.90
81266;DHT22;70748;52.510;13.410;2023-07-13T01:20:17;19.30;58.50
81266;DHT22;70748;52.510;13.410;2023-07-13T01:22:42;19.40;59.10
81266;DHT22;70748;52.510;13.410;2023-07-13T01:25:08;19.40;58.80
81266;DHT22;70748;52.510;13.410;2023-07-13T01:27:34;19.30;58.90
81266;DHT22;70748;52.510;13.410;2023-07-13T01:29:59;19.30;59.10
81266;DHT22;70748;52.510;13.410;2023-07-13T01:32:30;19.30;59.30
81266;DHT22;70748;52.510;13.410;2023-07-13T01:34:56;19.10;59.40
81266;DHT22;70748;52.510;13.410;2023-07-13T01:37:24;19.10;59.90
81266;DHT22;70748;52.510;13.410;2023-07-13T01:39:50;19.00;60.10
81266;DHT22;70748;52.510;13.410;2023-07-13T01:42:16;19.00;60.40
81266;DHT22;70748;52.510;13.410;2023-07-13T01:44:41;18.90;60.30
81266;DHT22;70748;52.510;13.410;2023-07-13T01:47:07;18.90;60.60
81266;DHT22;70748;52.510;13.410;2023-07-13T01:49:33;18.80;60.80
81266;DHT22;70748;52.510;13.410;2023-07-13T01:51:59;18.70;61.30
81266;DHT22;70748;52.510;13.410;2023-07-13T01:54:24;18.70;61.70
81266;DHT22;70748;52.510;13.410;2023-07-13T01:56:50;18.70;61.90
81266;DHT22;70748;52.510;13.410;2023-07-13T01:59:16;18.70;61.90
81266;DHT22;70748;52.510;13.410;2023-07-13T02:01:41;18.50;62.10
81266;DHT22;70748;52.510;13.410;2023-07-13T02:04:07;18.50;62.50
81266;DHT22;70748;52.510;13.410;2023-07-13T02:06:33;18.50;62.60
81266;DHT22;70748;52.510;13.410;2023-07-13T02:08:59;18.50;62.80
81266;DHT22;70748;52.510;13.410;2023-07-13T02:11:25;18.50;63.10
81266;DHT22;70748;52.510;13.410;2023-07-13T02:13:58;18.40;63.00
81266;DHT22;70748;52.510;13.410;2023-07-13T02:16:24;18.30;63.30
81266;DHT22;70748;52.510;13.410;2023-07-13T02:18:50;18.40;63.30
81266;DHT22;70748;52.510;13.410;2023-07-13T02:21:17;18.20;63.40
81266;DHT22;70748;52.510;13.410;2023-07-13T02:23:43;18.30;64.00
81266;DHT22;70748;52.510;13.410;2023-07-13T02:26:10;18.40;64.00
81266;DHT22;70748;52.510;13.410;2023-07-13T02:28:35;18.50;63.90
81266;DHT22;70748;52.510;13.410;2023-07-13T02:31:09;18.40;63.20
81266;DHT22;70748;52.510;13.410;2023-07-13T02:33:35;18.40;63.50
81266;DHT22;70748;52.510;13.410;2023-07-13T02:36:01;18.40;63.40
81266;DHT22;70748;52.510;13.410;2023-07-13T02:38:27;18.30;63.60
81266;DHT22;70748;52.510;13.410;2023-07-13T02:40:53;18.30;63.70
81266;DHT22;70748;52.510;13.410;2023-07-13T02:43:19;18.20;63.70
81266;DHT22;70748;52.510;13.410;2023-07-13T02:45:45;18.20;64.20
81266;DHT22;70748;52.510;13.410;2023-07-13T02:48:12;18.20;64.30
81266;DHT22;70748;52.510;13.410;2023-07-13T02:50:39;18.20;64.50
81266;DHT22;70748;52.510;13.410;2023-07-13T02:53:04;18.20;64.50
81266;DHT22;70748;52.510;13.410;2023-07-13T02:55:30;18.20;64.20
81266;DHT22;70748;52.510;13.410;2023-07-13T02:57:55;18.10;64.80
81266;DHT22;70748;52.510;13.410;2023-07-13T03:00:22;18.10;64.70
81266;DHT22;70748;52.510;13.410;2023-07-13T03:02:48;17.90;64.70
81266;DHT22;70748;52.510;13.410;2023-07-13T03:05:15;18.00;65.20
81266;DHT22;70748;52.510;13.410;2023-07-13T03:07:41;18.00;65.40
81266;DHT22;70748;52.510;13.410;2023-07-13T03:10:08;18.00;65.60
81266;DHT22;70748;52.510;13.410;2023-07-13T03:12:34;18.10;65.60
81266;DHT22;70748;52.510;13.410;2023-07-13T03:15:00;17.90;65.60
81266;DHT22;70748;52.510;13.410;2023-07-13T03:17:26;18.00;65.60
81266;DHT22;70748;52.510;13.410;2023-07-13T03:19:51;18.00;65.70
81266;DHT22;70748;52.510;13.410;2023-07-13T03:22:18;18.00;65.60
81266;DHT22;70748;52.510;13.410;2023-07-13T03:24:44;18.00;65.60
81266;DHT22;70748;52.510;13.410;2023-07-13T03:27:10;18.10;65.70
81266;DHT22;70748;52.510;13.410;2023-07-13T03:29:36;18.00;65.70
81266;DHT22;70748;52.510;13.410;2023-07-13T03:32:01;17.90;65.70
81266;DHT22;70748;52.510;13.410;2023-07-13T03:34:27;18.00;65.70
81266;DHT22;70748;52.510;13.410;2023-07-13T03:36:56;18.00;66.00
81266;DHT22;70748;52.510;13.410;2023-07-13T03:39:22;18.10;65.60
81266;DHT22;70748;52.510;13.410;2023-07-13T03:41:48;18.20;65.70
81266;DHT22;70748;52.510;13.410;2023-07-13T03:44:16;18.30;66.20
81266;DHT22;70748;52.510;13.410;2023-07-13T03:46:43;18.40;65.10
81266;DHT22;70748;52.510;13.410;2023-07-13T03:49:09;18.30;64.60
81266;DHT22;70748;52.510;13.410;2023-07-13T03:51:35;18.30;64.60
81266;DHT22;70748;52.510;13.410;2023-07-13T03:54:01;18.40;64.30
81266;DHT22;70748;52.510;13.410;2023-07-13T03:56:28;18.60;64.20
81266;DHT22;70748;52.510;13.410;2023-07-13T03:58:55;18.80;64.00
81266;DHT22;70748;52.510;13.410;2023-07-13T04:01:23;18.70;62.70
81266;DHT22;70748;52.510;13.410;2023-07-13T04:03:50;18.60;62.50
81266;DHT22;70748;52.510;13.410;2023-07-13T04:06:19;18.80;62.60
81266;DHT22;70748;52.510;13.410;2023-07-13T04:08:51;18.80;62.30
81266;DHT22;70748;52.510;13.410;2023-07-13T04:11:19;18.90;62.20
81266;DHT22;70748;52.510;13.410;2023-07-13T04:13:45;19.10;61.30
81266;DHT22;70748;52.510;13.410;2023-07-13T04:16:12;19.30;60.60
81266;DHT22;70748;52.510;13.410;2023-07-13T04:18:38;19.50;60.40
81266;DHT22;70748;52.510;13.410;2023-07-13T04:21:04;19.30;60.30
81266;DHT22;70748;52.510;13.410;2023-07-13T04:23:29;19.40;60.40
81266;DHT22;70748;52.510;13.410;2023-07-13T04:25:55;19.50;59.90
81266;DHT22;70748;52.510;13.410;2023-07-13T04:28:23;19.60;59.70
81266;DHT22;70748;52.510;13.410;2023-07-13T04:30:49;19.80;59.50
81266;DHT22;70748;52.510;13.410;2023-07-13T04:33:15;19.50;60.10
81266;DHT22;70748;52.510;13.410;2023-07-13T04:35:48;19.60;60.30
81266;DHT22;70748;52.510;13.410;2023-07-13T04:38:14;19.50;60.10
81266;DHT22;70748;52.510;13.410;2023-07-13T04:40:44;19.40;61.10
81266;DHT22;70748;52.510;13.410;2023-07-13T04:43:10;19.80;59.50
81266;DHT22;70748;52.510;13.410;2023-07-13T04:45:36;19.80;59.00
81266;DHT22;70748;52.510;13.410;2023-07-13T04:48:02;19.70;59.30
81266;DHT22;70748;52.510;13.410;2023-07-13T04:50:27;19.70;59.70
81266;DHT22;70748;52.510;13.410;2023-07-13T04:52:53;19.60;59.90
81266;DHT22;70748;52.510;13.410;2023-07-13T04:55:19;19.50;60.50
81266;DHT22;70748;52.510;13.410;2023-07-13T04:57:46;19.80;59.90
81266;DHT22;70748;52.510;13.410;2023-07-13T05:00:12;19.50;60.00
81266;DHT22;70748;52.510;13.410;2023-07-13T05:02:39;19.70;60.30
81266;DHT22;70748;52.510;13.410;2023-07-13T05:05:05;19.70;60.40
81266;DHT22;70748;52.510;13.410;2023-07-13T05:07:31;20.00;59.70
81266;DHT22;70748;52.510;13.410;2023-07-13T05:09:59;20.20;58.90
81266;DHT22;70748;52.510;13.410;2023-07-13T05:12:25;20.00;59.20
81266;DHT22;70748;52.510;13.410;2023-07-13T05:14:51;19.90;59.40
81266;DHT22;70748;52.510;13.410;2023-07-13T05:17:17;19.80;59.60
81266;DHT22;70748;52.510;13.410;2023-07-13T05:19:42;19.90;59.10
81266;DHT22;70748;52.510;13.410;2023-07-13T05:22:08;19.90;59.00
81266;DHT22;70748;52.510;13.410;2023-07-13T05:24:34;20.00;58.90
81266;DHT22;70748;52.510;13.410;2023-07-13T05:26:59;20.10;58.60
81266;DHT22;70748;52.510;13.410;2023-07-13T05:29:25;20.20;58.40
81266;DHT22;70748;52.510;13.410;2023-07-13T05:31:51;20.40;58.30
81266;DHT22;70748;52.510;13.410;2023-07-13T05:34:17;20.50;57.20
81266;DHT22;70748;52.510;13.410;2023-07-13T05:36:42;20.60;57.40
81266;DHT22;70748;52.510;13.410;2023-07-13T05:39:08;20.70;56.10
81266;DHT22;70748;52.510;13.410;2023-07-13T05:41:35;20.60;57.40
81266;DHT22;70748;52.510;13.410;2023-07-13T05:44:00;20.40;57.40
81266;DHT22;70748;52.510;13.410;2023-07-13T05:46:26;20.30;57.90
81266;DHT22;70748;52.510;13.410;2023-07-13T05:48:52;20.40;58.20
81266;DHT22;70748;52.510;13.410;2023-07-13T05:51:17;20.40;58.10
81266;DHT22;70748;52.510;13.410;2023-07-13T05:53:43;20.60;59.10
81266;DHT22;70748;52.510;13.410;2023-07-13T05:56:09;20.60;58.00
81266;DHT22;70748;52.510;13.410;2023-07-13T05:58:35;20.60;57.80
81266;DHT22;70748;52.510;13.410;2023-07-13T06:01:06;20.60;57.20
81266;DHT22;70748;52.510;13.410;2023-07-13T06:03:33;20.70;57.20
81266;DHT22;70748;52.510;13.410;2023-07-13T06:05:58;20.70;57.70
81266;DHT22;70748;52.510;13.410;2023-07-13T06:08:28;20.80;57.10
81266;DHT22;70748;52.510;13.410;2023-07-13T06:10:53;20.90;57.70
81266;DHT22;70748;52.510;13.410;2023-07-13T06:13:19;21.00;56.50
81266;DHT22;70748;52.510;13.410;2023-07-13T06:15:49;21.20;56.20
81266;DHT22;70748;52.510;13.410;2023-07-13T06:18:15;21.20;56.00
81266;DHT22;70748;52.510;13.410;2023-07-13T06:20:41;21.20;55.80
81266;DHT22;70748;52.510;13.410;2023-07-13T06:23:06;21.30;57.10
81266;DHT22;70748;52.510;13.410;2023-07-13T06:25:32;21.50;56.00
81266;DHT22;70748;52.510;13.410;2023-07-13T06:27:58;21.70;56.10
81266;DHT22;70748;52.510;13.410;2023-07-13T06:30:23;22.00;53.50
81266;DHT22;70748;52.510;13.410;2023-07-13T06:32:49;22.20;52.70
81266;DHT22;70748;52.510;13.410;2023-07-13T06:35:15;22.30;53.00
81266;DHT22;70748;52.510;13.410;2023-07-13T06:37:41;22.40;52.10
81266;DHT22;70748;52.510;13.410;2023-07-13T06:40:07;22.50;52.20
81266;DHT22;70748;52.510;13.410;2023-07-13T06:42:33;23.00;51.00
81266;DHT22;70748;52.510;13.410;2023-07-13T06:44:58;23.60;49.30
81266;DHT22;70748;52.510;13.410;2023-07-13T06:47:24;24.60;46.40
81266;DHT22;70748;52.510;13.410;2023-07-13T06:49:50;26.40;42.80
81266;DHT22;70748;52.510;13.410;2023-07-13T06:52:15;27.60;41.20
81266;DHT22;70748;52.510;13.410;2023-07-13T06:54:41;27.90;39.00
81266;DHT22;70748;52.510;13.410;2023-07-13T06:57:07;29.50;36.70
81266;DHT22;70748;52.510;13.410;2023-07-13T06:59:32;30.50;34.00
81266;DHT22;70748;52.510;13.410;2023-07-13T07:01:58;31.20;32.10
81266;DHT22;70748;52.510;13.410;2023-07-13T07:04:24;31.20;31.90
81266;DHT22;70748;52.510;13.410;2023-07-13T07:06:49;32.40;31.20
81266;DHT22;70748;52.510;13.410;2023-07-13T07:09:15;33.30;29.60
81266;DHT22;70748;52.510;13.410;2023-07-13T07:11:42;33.90;28.30
81266;DHT22;70748;52.510;13.410;2023-07-13T07:14:08;35.50;26.90
81266;DHT22;70748;52.510;13.410;2023-07-13T07:16:34;34.00;26.70
81266;DHT22;70748;52.510;13.410;2023-07-13T07:18:59;34.20;27.80
81266;DHT22;70748;52.510;13.410;2023-07-13T07:21:25;34.80;26.20
81266;DHT22;70748;52.510;13.410;2023-07-13T07:23:51;34.10;26.30
81266;DHT22;70748;52.510;13.410;2023-07-13T07:26:17;33.50;27.30
81266;DHT22;70748;52.510;13.410;2023-07-13T07:28:43;34.10;25.50
81266;DHT22;70748;52.510;13.410;2023-07-13T07:31:09;33.90;25.40
81266;DHT22;70748;52.510;13.410;2023-07-13T07:33:34;34.60;26.50
81266;DHT22;70748;52.510;13.410;2023-07-13T07:36:00;36.70;24.70
81266;DHT22;70748;52.510;13.410;2023-07-13T07:38:26;35.00;24.50
81266;DHT22;70748;52.510;13.410;2023-07-13T07:40:52;33.50;26.40
81266;DHT22;70748;52.510;13.410;2023-07-13T07:43:18;34.70;25.90
81266;DHT22;70748;52.510;13.410;2023-07-13T07:45:44;34.40;25.50
81266;DHT22;70748;52.510;13.410;2023-07-13T07:48:10;32.40;26.60
81266;DHT22;70748;52.510;13.410;2023-07-13T07:50:36;31.50;28.10
81266;DHT22;70748;52.510;13.410;2023-07-13T07:53:02;31.40;28.60
81266;DHT22;70748;52.510;13.410;2023-07-13T07:55:28;30.20;29.60
81266;DHT22;70748;52.510;13.410;2023-07-13T07:57:56;29.80;30.70
81266;DHT22;70748;52.510;13.410;2023-07-13T08:00:22;29.00;31.90
81266;DHT22;70748;52.510;13.410;2023-07-13T08:02:47;28.60;33.90
81266;DHT22;70748;52.510;13.410;2023-07-13T08:05:13;28.50;33.00
81266;DHT22;70748;52.510;13.410;2023-07-13T08:07:39;28.40;34.30
81266;DHT22;70748;52.510;13.410;2023-07-13T08:10:06;28.20;32.50
81266;DHT22;70748;52.510;13.410;2023-07-13T08:12:39;28.20;33.30
81266;DHT22;70748;52.510;13.410;2023-07-13T08:15:08;28.90;32.40
81266;DHT22;70748;52.510;13.410;2023-07-13T08:17:35;29.70;30.70
81266;DHT22;70748;52.510;13.410;2023-07-13T08:20:01;28.60;31.60
81266;DHT22;70748;52.510;13.410;2023-07-13T08:22:27;28.20;32.00
81266;DHT22;70748;52.510;13.410;2023-07-13T08:24:53;28.70;32.40
81266;DHT22;70748;52.510;13.410;2023-07-13T08:27:22;28.60;32.70
81266;DHT22;70748;52.510;13.410;2023-07-13T08:29:49;28.50;32.30
81266;DHT22;70748;52.510;13.410;2023-07-13T08:32:15;29.00;31.50
81266;DHT22;70748;52.510;13.410;2023-07-13T08:34:40;29.20;30.80
81266;DHT22;70748;52.510;13.410;2023-07-13T08:37:06;28.90;31.50
81266;DHT22;70748;52.510;13.410;2023-07-13T08:39:33;27.70;33.30
81266;DHT22;70748;52.510;13.410;2023-07-13T08:44:53;27.60;33.60
81266;DHT22;70748;52.510;13.410;2023-07-13T08:47:23;27.80;34.70
81266;DHT22;70748;52.510;13.410;2023-07-13T08:49:50;27.80;35.20
81266;DHT22;70748;52.510;13.410;2023-07-13T08:52:34;28.00;35.20
81266;DHT22;70748;52.510;13.410;2023-07-13T08:57:36;27.30;36.00
81266;DHT22;70748;52.510;13.410;2023-07-13T09:00:02;26.80;36.10
81266;DHT22;70748;52.510;13.410;2023-07-13T09:05:15;28.00;36.00
81266;DHT22;70748;52.510;13.410;2023-07-13T09:08:12;29.90;31.20
81266;DHT22;70748;52.510;13.410;2023-07-13T09:10:52;32.90;27.40
81266;DHT22;70748;52.510;13.410;2023-07-13T09:16:21;35.70;24.40
81266;DHT22;70748;52.510;13.410;2023-07-13T09:18:50;34.60;24.10
81266;DHT22;70748;52.510;13.410;2023-07-13T09:21:24;33.50;24.70
81266;DHT22;70748;52.510;13.410;2023-07-13T09:23:56;35.00;24.40
81266;DHT22;70748;52.510;13.410;2023-07-13T09:26:26;35.40;23.60
81266;DHT22;70748;52.510;13.410;2023-07-13T09:28:59;36.20;22.40
81266;DHT22;70748;52.510;13.410;2023-07-13T09:31:31;38.30;21.00
81266;DHT22;70748;52.510;13.410;2023-07-13T09:33:59;39.20;20.60
81266;DHT22;70748;52.510;13.410;2023-07-13T09:36:28;39.30;19.10
81266;DHT22;70748;52.510;13.410;2023-07-13T09:39:44;40.20;17.60
81266;DHT22;70748;52.510;13.410;2023-07-13T09:42:00;40.80;17.60
81266;DHT22;70748;52.510;13.410;2023-07-13T09:44:39;42.70;16.60
81266;DHT22;70748;52.510;13.410;2023-07-13T09:47:28;42.60;16.30
81266;DHT22;70748;52.510;13.410;2023-07-13T09:49:58;40.30;17.90
81266;DHT22;70748;52.510;13.410;2023-07-13T09:52:25;39.20;18.90
81266;DHT22;70748;52.510;13.410;2023-07-13T09:54:53;40.60;17.90
81266;DHT22;70748;52.510;13.410;2023-07-13T09:57:25;39.10;17.80
81266;DHT22;70748;52.510;13.410;2023-07-13T09:59:53;39.90;17.70
81266;DHT22;70748;52.510;13.410;2023-07-13T10:07:27;41.10;16.70
81266;DHT22;70748;52.510;13.410;2023-07-13T10:09:54;40.40;17.40
81266;DHT22;70748;52.510;13.410;2023-07-13T10:12:20;39.10;18.10
81266;DHT22;70748;52.510;13.410;2023-07-13T10:14:46;37.50;19.00
81266;DHT22;70748;52.510;13.410;2023-07-13T10:17:14;37.80;19.10
81266;DHT22;70748;52.510;13.410;2023-07-13T10:19:41;38.70;19.00
81266;DHT22;70748;52.510;13.410;2023-07-13T10:22:44;39.20;18.90
81266;DHT22;70748;52.510;13.410;2023-07-13T10:25:19;39.30;19.20
81266;DHT22;70748;52.510;13.410;2023-07-13T10:27:46;38.00;19.00
81266;DHT22;70748;52.510;13.410;2023-07-13T10:30:15;37.20;19.40
81266;DHT22;70748;52.510;13.410;2023-07-13T10:32:43;36.00;20.20
81266;DHT22;70748;52.510;13.410;2023-07-13T10:35:15;33.50;21.70
81266;DHT22;70748;52.510;13.410;2023-07-13T10:37:54;32.90;23.30
81266;DHT22;70748;52.510;13.410;2023-07-13T10:40:36;34.50;21.90
81266;DHT22;70748;52.510;13.410;2023-07-13T10:43:07;33.20;22.70
81266;DHT22;70748;52.510;13.410;2023-07-13T10:45:36;34.10;22.80
81266;DHT22;70748;52.510;13.410;2023-07-13T10:48:03;34.90;21.70
81266;DHT22;70748;52.510;13.410;2023-07-13T10:50:30;35.70;22.00
81266;DHT22;70748;52.510;13.410;2023-07-13T10:53:21;36.60;21.00
81266;DHT22;70748;52.510;13.410;2023-07-13T10:58:22;37.90;18.50
81266;DHT22;70748;52.510;13.410;2023-07-13T11:03:35;38.70;17.90
81266;DHT22;70748;52.510;13.410;2023-07-13T11:06:15;38.60;18.30
81266;DHT22;70748;52.510;13.410;2023-07-13T11:08:53;38.60;18.60
81266;DHT22;70748;52.510;13.410;2023-07-13T11:11:38;39.20;17.10
81266;DHT22;70748;52.510;13.410;2023-07-13T11:14:25;37.70;17.60
81266;DHT22;70748;52.510;13.410;2023-07-13T11:16:50;38.30;18.20
81266;DHT22;70748;52.510;13.410;2023-07-13T11:22:02;39.70;17.20
81266;DHT22;70748;52.510;13.410;2023-07-13T11:24:29;40.00;17.10
81266;DHT22;70748;52.510;13.410;2023-07-13T11:27:42;39.90;16.80
81266;DHT22;70748;52.510;13.410;2023-07-13T11:30:20;39.90;16.50
81266;DHT22;70748;52.510;13.410;2023-07-13T11:32:51;39.60;17.10
81266;DHT22;70748;52.510;13.410;2023-07-13T11:35:23;40.00;16.40
81266;DHT22;70748;52.510;13.410;2023-07-13T11:37:52;39.60;16.40
81266;DHT22;70748;52.510;13.410;2023-07-13T11:40:18;39.40;17.40
81266;DHT22;70748;52.510;13.410;2023-07-13T11:42:44;39.70;17.10
81266;DHT22;70748;52.510;13.410;2023-07-13T11:45:22;40.30;16.60
81266;DHT22;70748;52.510;13.410;2023-07-13T11:47:49;40.30;16.00
81266;DHT22;70748;52.510;13.410;2023-07-13T11:50:23;40.30;16.30
81266;DHT22;70748;52.510;13.410;2023-07-13T11:52:51;38.90;17.30
81266;DHT22;70748;52.510;13.410;2023-07-13T11:55:20;39.10;18.00
81266;DHT22;70748;52.510;13.410;2023-07-13T11:58:00;39.80;17.20
81266;DHT22;70748;52.510;13.410;2023-07-13T12:00:29;38.80;17.10
81266;DHT22;70748;52.510;13.410;2023-07-13T12:02:58;37.90;17.70
81266;DHT22;70748;52.510;13.410;2023-07-13T12:05:25;38.20;16.90
81266;DHT22;70748;52.510;13.410;2023-07-13T12:07:51;37.90;17.60
81266;DHT22;70748;52.510;13.410;2023-07-13T12:10:30;37.70;16.80
81266;DHT22;70748;52.510;13.410;2023-07-13T12:13:03;38.20;17.50
81266;DHT22;70748;52.510;13.410;2023-07-13T12:15:40;38.60;17.00
81266;DHT22;70748;52.510;13.410;2023-07-13T12:18:19;38.10;18.00
81266;DHT22;70748;52.510;13.410;2023-07-13T12:20:46;39.40;17.50
81266;DHT22;70748;52.510;13.410;2023-07-13T12:23:33;39.20;17.30
81266;DHT22;70748;52.510;13.410;2023-07-13T12:26:03;38.70;17.00
81266;DHT22;70748;52.510;13.410;2023-07-13T12:28:38;38.40;18.20
81266;DHT22;70748;52.510;13.410;2023-07-13T12:31:22;37.60;18.50
81266;DHT22;70748;52.510;13.410;2023-07-13T12:34:10;37.00;18.60
81266;DHT22;70748;52.510;13.410;2023-07-13T12:36:56;37.30;18.50
81266;DHT22;70748;52.510;13.410;2023-07-13T12:42:25;39.20;16.90
81266;DHT22;70748;52.510;13.410;2023-07-13T12:45:05;38.90;17.10
81266;DHT22;70748;52.510;13.410;2023-07-13T12:47:42;35.60;19.20
81266;DHT22;70748;52.510;13.410;2023-07-13T12:50:17;33.10;21.70
81266;DHT22;70748;52.510;13.410;2023-07-13T12:52:44;34.10;21.20
81266;DHT22;70748;52.510;13.410;2023-07-13T12:55:18;35.30;20.30
81266;DHT22;70748;52.510;13.410;2023-07-13T12:57:53;35.80;19.70
81266;DHT22;70748;52.510;13.410;2023-07-13T13:00:28;35.40;20.50
81266;DHT22;70748;52.510;13.410;2023-07-13T13:02:56;36.00;19.00
81266;DHT22;70748;52.510;13.410;2023-07-13T13:05:25;36.00;18.90
81266;DHT22;70748;52.510;13.410;2023-07-13T13:07:52;36.20;19.40
81266;DHT22;70748;52.510;13.410;2023-07-13T13:10:17;35.70;19.70
81266;DHT22;70748;52.510;13.410;2023-07-13T13:12:43;33.50;21.00
81266;DHT22;70748;52.510;13.410;2023-07-13T13:15:10;32.50;22.00
81266;DHT22;70748;52.510;13.410;2023-07-13T13:17:37;31.60;23.10
81266;DHT22;70748;52.510;13.410;2023-07-13T13:20:20;30.90;24.20
81266;DHT22;70748;52.510;13.410;2023-07-13T13:22:46;30.60;24.60
81266;DHT22;70748;52.510;13.410;2023-07-13T13:25:13;31.20;24.90
81266;DHT22;70748;52.510;13.410;2023-07-13T13:27:43;31.50;24.90
81266;DHT22;70748;52.510;13.410;2023-07-13T13:30:16;30.20;25.60
81266;DHT22;70748;52.510;13.410;2023-07-13T13:32:45;29.50;26.10
81266;DHT22;70748;52.510;13.410;2023-07-13T13:35:16;29.20;26.80
81266;DHT22;70748;52.510;13.410;2023-07-13T13:37:42;29.40;26.70
81266;DHT22;70748;52.510;13.410;2023-07-13T13:40:21;29.70;26.60
81266;DHT22;70748;52.510;13.410;2023-07-13T13:42:48;30.10;26.90
81266;DHT22;70748;52.510;13.410;2023-07-13T13:45:14;30.20;25.10
81266;DHT22;70748;52.510;13.410;2023-07-13T13:47:43;30.10;25.20
81266;DHT22;70748;52.510;13.410;2023-07-13T13:50:12;30.70;25.90
81266;DHT22;70748;52.510;13.410;2023-07-13T13:52:40;30.30;26.10
81266;DHT22;70748;52.510;13.410;2023-07-13T13:55:16;30.70;27.10
81266;DHT22;70748;52.510;13.410;2023-07-13T13:57:45;30.70;26.00
81266;DHT22;70748;52.510;13.410;2023-07-13T14:00:12;30.20;26.30
81266;DHT22;70748;52.510;13.410;2023-07-13T14:02:41;30.30;26.00
81266;DHT22;70748;52.510;13.410;2023-07-13T14:05:11;29.80;25.90
81266;DHT22;70748;52.510;13.410;2023-07-13T14:07:37;29.40;26.60
81266;DHT22;70748;52.510;13.410;2023-07-13T14:10:14;29.30;26.40
81266;DHT22;70748;52.510;13.410;2023-07-13T14:12:41;29.30;26.90
81266;DHT22;70748;52.510;13.410;2023-07-13T14:15:21;29.30;26.70
81266;DHT22;70748;52.510;13.410;2023-07-13T14:17:47;29.40;26.50
81266;DHT22;70748;52.510;13.410;2023-07-13T14:20:17;28.80;27.10
81266;DHT22;70748;52.510;13.410;2023-07-13T14:22:42;28.60;26.40
81266;DHT22;70748;52.510;13.410;2023-07-13T14:25:15;28.60;27.50
81266;DHT22;70748;52.510;13.410;2023-07-13T14:27:42;28.50;27.20
81266;DHT22;70748;52.510;13.410;2023-07-13T14:30:20;28.40;27.60
81266;DHT22;70748;52.510;13.410;2023-07-13T14:32:46;28.00;28.40
81266;DHT22;70748;52.510;13.410;2023-07-13T14:35:17;27.90;28.20
81266;DHT22;70748;52.510;13.410;2023-07-13T14:37:44;28.20;29.10
81266;DHT22;70748;52.510;13.410;2023-07-13T14:40:17;28.30;28.50
81266;DHT22;70748;52.510;13.410;2023-07-13T14:42:43;28.20;28.20
81266;DHT22;70748;52.510;13.410;2023-07-13T14:45:16;28.20;28.90
81266;DHT22;70748;52.510;13.410;2023-07-13T14:47:43;28.10;28.80
81266;DHT22;70748;52.510;13.410;2023-07-13T14:50:17;27.90;28.30
81266;DHT22;70748;52.510;13.410;2023-07-13T14:52:44;27.80;29.40
81266;DHT22;70748;52.510;13.410;2023-07-13T14:55:12;27.80;29.10
81266;DHT22;70748;52.510;13.410;2023-07-13T14:57:38;28.10;28.50
81266;DHT22;70748;52.510;13.410;2023-07-13T15:00:09;27.80;28.80
81266;DHT22;70748;52.510;13.410;2023-07-13T15:02:38;27.60;29.40
81266;DHT22;70748;52.510;13.410;2023-07-13T15:05:16;27.40;29.00
81266;DHT22;70748;52.510;13.410;2023-07-13T15:07:43;27.40;28.50
81266;DHT22;70748;52.510;13.410;2023-07-13T15:10:20;27.30;29.50
81266;DHT22;70748;52.510;13.410;2023-07-13T15:12:47;27.20;30.20
81266;DHT22;70748;52.510;13.410;2023-07-13T15:15:13;27.20;28.80
81266;DHT22;70748;52.510;13.410;2023-07-13T15:17:41;27.00;28.80
81266;DHT22;70748;52.510;13.410;2023-07-13T15:22:51;27.10;29.40
81266;DHT22;70748;52.510;13.410;2023-07-13T15:25:19;27.10;29.20
81266;DHT22;70748;52.510;13.410;2023-07-13T15:27:45;27.20;28.00
81266;DHT22;70748;52.510;13.410;2023-07-13T15:30:12;26.90;27.60
81266;DHT22;70748;52.510;13.410;2023-07-13T15:32:38;26.70;28.40
81266;DHT22;70748;52.510;13.410;2023-07-13T15:35:08;26.70;28.80
81266;DHT22;70748;52.510;13.410;2023-07-13T15:37:38;26.70;28.70
81266;DHT22;70748;52.510;13.410;2023-07-13T15:40:04;26.80;28.60
81266;DHT22;70748;52.510;13.410;2023-07-13T15:42:30;26.60;28.90
81266;DHT22;70748;52.510;13.410;2023-07-13T15:44:56;26.40;29.10
81266;DHT22;70748;52.510;13.410;2023-07-13T15:47:21;26.20;30.10
81266;DHT22;70748;52.510;13.410;2023-07-13T15:49:47;26.30;30.20
81266;DHT22;70748;52.510;13.410;2023-07-13T15:52:21;26.20;30.00
81266;DHT22;70748;52.510;13.410;2023-07-13T15:54:48;26.30;30.00
81266;DHT22;70748;52.510;13.410;2023-07-13T15:57:14;26.40;30.10